Wax, Kentucky
Current Conditions -  °F | °C
As of 6:35 PM on Sunday 21 Dec 2014 (Local Time) from KGLW Reporting Station
Overcast Overcast  
Wind Chill: 40°   Ceiling: 4300
Heat Index: 40°   Visibility: 10mi
Dew Point: 30°   Wind: 0mph
Humidity: 67%   Direction: NA
Pressure: 30.1"   Gusts: NA
Location:  37.4262°N, 86.1465°W
Report Text: KGLW 220035Z AUTO 00000KT 10SM OVC043 05/M01 A3010 RMK AO2 T00451012
Loading
Personal Weather Stations






























Interactive Weather Map New forecast layout! Learn more

10-Day Weather Forecast

Advertisements
Track Severe Weather on mobile